createdAt,value
2023-02-11T00:02:34.548Z,-4.62
2023-02-11T00:05:36.236Z,-4.56
2023-02-11T00:08:38.878Z,-4.76
2023-02-11T00:11:40.582Z,-4.85
2023-02-11T00:14:42.228Z,-4.67
2023-02-11T00:17:43.939Z,-4.76
2023-02-11T00:20:45.584Z,-5.12
2023-02-11T00:23:47.748Z,-5.11
2023-02-11T00:26:49.364Z,-5.03
2023-02-11T00:29:51.022Z,-4.99
2023-02-11T00:32:52.698Z,-5.16
2023-02-11T00:35:54.361Z,-5.35
2023-02-11T00:38:57.410Z,-5.88
2023-02-11T00:41:59.073Z,-5.66
2023-02-11T00:45:00.714Z,-5.26
2023-02-11T00:48:02.363Z,-5.07
2023-02-11T00:51:04.353Z,-4.81
2023-02-11T00:54:06.866Z,-4.89
2023-02-11T00:57:08.549Z,-4.86
2023-02-11T01:00:12.857Z,-4.85
2023-02-11T01:03:14.566Z,-4.85
2023-02-11T01:06:16.528Z,-5.41
2023-02-11T01:09:18.335Z,-5.03
2023-02-11T01:12:20.213Z,-5.20
2023-02-11T01:15:22.339Z,-5.16
2023-02-11T01:18:24.849Z,-5.64
2023-02-11T01:21:26.511Z,-5.81
2023-02-11T01:24:28.282Z,-5.96
2023-02-11T01:27:29.938Z,-5.78
2023-02-11T01:30:31.655Z,-5.40
2023-02-11T01:33:33.335Z,-5.87
2023-02-11T01:36:34.979Z,-5.27
2023-02-11T01:39:37.155Z,-5.14
2023-02-11T01:42:39.158Z,-5.33
2023-02-11T01:45:49.996Z,-5.59
2023-02-11T01:49:07.353Z,-5.97
2023-02-11T01:52:20.140Z,-5.93
2023-02-11T01:55:40.370Z,-5.82
2023-02-11T01:58:44.525Z,-5.67
2023-02-11T02:01:52.122Z,-5.54
2023-02-11T02:05:02.701Z,-5.11
2023-02-11T02:08:17.520Z,-5.18
2023-02-11T02:11:19.217Z,-5.26
2023-02-11T02:14:20.931Z,-5.23
2023-02-11T02:17:38.500Z,-5.27
2023-02-11T02:21:13.734Z,-5.05
2023-02-11T02:24:27.217Z,-5.18
2023-02-11T02:27:28.828Z,-5.28
2023-02-11T02:30:36.166Z,-5.47
2023-02-11T02:33:47.836Z,-5.73
2023-02-11T02:37:04.618Z,-5.69
2023-02-11T02:40:22.774Z,-5.53
2023-02-11T02:43:27.138Z,-5.42
2023-02-11T02:46:33.942Z,-5.85
2023-02-11T02:49:35.646Z,-5.81
2023-02-11T02:52:55.273Z,-5.87
2023-02-11T02:56:15.070Z,-5.65
2023-02-11T02:59:19.792Z,-5.77
2023-02-11T03:02:22.151Z,-5.50
2023-02-11T03:05:31.426Z,-5.36
2023-02-11T03:08:40.746Z,-5.41
2023-02-11T03:11:42.463Z,-5.34
2023-02-11T03:14:45.390Z,-5.20
2023-02-11T03:17:51.277Z,-5.11
2023-02-11T03:20:54.974Z,-5.42
2023-02-11T03:24:07.870Z,-5.52
2023-02-11T03:27:21.129Z,-5.89
2023-02-11T03:30:30.297Z,-5.70
2023-02-11T03:33:47.945Z,-5.81
2023-02-11T03:37:00.442Z,-6.04
2023-02-11T03:40:13.084Z,-6.00
2023-02-11T03:43:22.858Z,-5.98
2023-02-11T03:46:32.193Z,-5.81
2023-02-11T03:49:36.450Z,-5.75
2023-02-11T03:52:38.771Z,-6.15
2023-02-11T03:55:42.455Z,-5.82
2023-02-11T03:58:48.499Z,-5.71
2023-02-11T04:01:50.229Z,-6.18
2023-02-11T04:04:51.905Z,-6.59
2023-02-11T04:07:53.596Z,-6.38
2023-02-11T04:10:55.220Z,-6.08
2023-02-11T04:13:56.900Z,-6.31
2023-02-11T04:16:58.593Z,-6.56
2023-02-11T04:20:00.226Z,-6.64
2023-02-11T04:23:01.882Z,-6.56
2023-02-11T04:26:03.836Z,-6.34
2023-02-11T04:29:05.534Z,-6.18
2023-02-11T04:32:07.335Z,-6.40
2023-02-11T04:35:09.061Z,-6.16
2023-02-11T04:38:10.722Z,-5.97
2023-02-11T04:41:12.380Z,-6.23
2023-02-11T04:44:14.085Z,-6.15
2023-02-11T04:47:15.933Z,-6.57
2023-02-11T04:50:17.707Z,-6.50
2023-02-11T04:53:19.411Z,-6.50
2023-02-11T04:56:21.088Z,-6.46
2023-02-11T04:59:22.724Z,-6.39
2023-02-11T05:02:24.371Z,-6.48
2023-02-11T05:05:26.063Z,-6.59
2023-02-11T05:08:27.952Z,-6.40
2023-02-11T05:11:29.677Z,-6.32
2023-02-11T05:14:31.358Z,-6.16
2023-02-11T05:17:33.022Z,-6.34
2023-02-11T05:20:34.755Z,-6.59
2023-02-11T05:23:36.841Z,-6.70
2023-02-11T05:26:38.477Z,-6.62
2023-02-11T05:29:40.136Z,-6.64
2023-02-11T05:32:41.905Z,-6.64
2023-02-11T05:35:43.634Z,-6.69
2023-02-11T05:38:45.294Z,-6.81
2023-02-11T05:41:46.998Z,-6.94
2023-02-11T05:44:50.628Z,-6.80
2023-02-11T05:47:52.425Z,-6.73
2023-02-11T05:50:54.099Z,-6.87
2023-02-11T05:53:55.784Z,-6.86
2023-02-11T05:56:57.485Z,-6.59
2023-02-11T05:59:59.171Z,-6.03
2023-02-11T06:03:00.972Z,-5.90
2023-02-11T06:06:02.632Z,-5.84
2023-02-11T06:09:04.404Z,-5.76
2023-02-11T06:12:06.218Z,-5.80
2023-02-11T06:15:08.109Z,-5.47
2023-02-11T06:18:09.834Z,-5.39
2023-02-11T06:21:12.294Z,-5.12
2023-02-11T06:24:14.069Z,-4.66
2023-02-11T06:27:15.681Z,-4.02
2023-02-11T06:30:17.429Z,-3.39
2023-02-11T06:33:19.197Z,-2.90
2023-02-11T06:36:22.952Z,-2.54
2023-02-11T06:39:24.626Z,-3.06
2023-02-11T06:42:26.383Z,-3.89
2023-02-11T06:45:28.034Z,-3.40
2023-02-11T06:48:29.685Z,-3.88
2023-02-11T06:51:31.491Z,-3.87
2023-02-11T06:54:33.242Z,-3.99
2023-02-11T06:57:34.990Z,-3.94
2023-02-11T07:00:37.056Z,-3.89
2023-02-11T07:03:40.789Z,-3.50
2023-02-11T07:06:42.585Z,-3.19
2023-02-11T07:09:44.366Z,-3.42
2023-02-11T07:12:45.984Z,-2.77
2023-02-11T07:15:47.994Z,-2.86
2023-02-11T07:18:50.053Z,-2.87
2023-02-11T07:21:51.754Z,-2.79
2023-02-11T07:24:53.443Z,-2.55
2023-02-11T07:27:55.157Z,-2.48
2023-02-11T07:30:56.910Z,-2.31
2023-02-11T07:34:01.052Z,-2.07
2023-02-11T07:37:03.164Z,-1.35
2023-02-11T07:40:05.221Z,-0.71
2023-02-11T07:43:06.853Z,-0.67
2023-02-11T07:46:14.986Z,-0.99
2023-02-11T07:49:16.977Z,-0.67
2023-02-11T07:52:18.863Z,-0.70
2023-02-11T07:55:20.492Z,-1.19
2023-02-11T07:58:22.123Z,-0.71
2023-02-11T08:01:28.367Z,-0.89
2023-02-11T08:04:30.156Z,-0.77
2023-02-11T08:07:32.376Z,-0.55
2023-02-11T08:10:34.008Z,-0.36
2023-02-11T08:13:36.215Z,-0.33
2023-02-11T08:16:39.042Z,-0.66
2023-02-11T08:19:40.822Z,-0.35
2023-02-11T08:22:42.485Z,-0.80
2023-02-11T08:25:44.102Z,-0.58
2023-02-11T08:28:47.747Z,-0.18
2023-02-11T08:31:49.723Z,-0.23
2023-02-11T08:34:52.411Z,0.01
2023-02-11T08:37:54.148Z,-0.53
2023-02-11T08:40:55.756Z,-0.39
2023-02-11T08:43:58.297Z,-0.17
2023-02-11T08:46:59.953Z,0.12
2023-02-11T08:50:01.585Z,0.34
2023-02-11T08:53:03.343Z,0.23
2023-02-11T08:56:06.230Z,0.32
2023-02-11T08:59:09.511Z,0.75
2023-02-11T09:02:14.121Z,1.02
2023-02-11T09:05:15.949Z,0.94
2023-02-11T09:08:17.623Z,2.15
2023-02-11T09:11:21.876Z,3.62
2023-02-11T09:14:24.679Z,4.69
2023-02-11T09:17:26.404Z,5.31
2023-02-11T09:20:28.379Z,6.64
2023-02-11T09:23:30.291Z,4.93
2023-02-11T09:26:34.200Z,3.70
2023-02-11T09:29:35.850Z,3.00
2023-02-11T09:32:37.539Z,2.55
2023-02-11T09:35:39.175Z,3.14
2023-02-11T09:38:40.858Z,2.66
2023-02-11T09:41:51.383Z,2.64
2023-02-11T09:44:53.262Z,3.12
2023-02-11T09:48:06.432Z,3.79
2023-02-11T09:51:23.851Z,4.77
2023-02-11T09:54:37.602Z,4.66
2023-02-11T09:57:39.314Z,3.92
2023-02-11T10:00:52.222Z,3.49
2023-02-11T10:03:56.893Z,4.60
2023-02-11T10:07:11.005Z,3.76
2023-02-11T10:10:44.489Z,3.70
2023-02-11T10:14:05.786Z,3.69
2023-02-11T10:17:32.475Z,3.34
2023-02-11T10:20:39.363Z,3.53
2023-02-11T10:23:45.264Z,3.98
2023-02-11T10:26:47.161Z,3.87
2023-02-11T10:29:57.322Z,4.03
2023-02-11T10:33:24.792Z,4.14
2023-02-11T10:36:30.520Z,4.22
2023-02-11T10:39:32.323Z,4.50
2023-02-11T10:42:35.780Z,4.33
2023-02-11T10:45:48.702Z,4.39
2023-02-11T10:48:53.817Z,4.65
2023-02-11T10:52:23.849Z,4.43
2023-02-11T10:55:28.756Z,4.30
2023-02-11T10:58:47.033Z,4.39
2023-02-11T11:01:51.320Z,4.79
2023-02-11T11:04:57.647Z,4.58
2023-02-11T11:08:05.968Z,4.70
2023-02-11T11:11:11.001Z,4.11
2023-02-11T11:14:20.510Z,3.74
2023-02-11T11:17:22.658Z,3.82
2023-02-11T11:20:35.254Z,4.01
2023-02-11T11:23:37.917Z,4.15
2023-02-11T11:26:48.659Z,4.63
2023-02-11T11:29:53.745Z,4.74
2023-02-11T11:32:56.790Z,5.32
2023-02-11T11:36:23.650Z,4.80
2023-02-11T11:39:29.522Z,4.76
2023-02-11T11:42:34.037Z,4.53
2023-02-11T11:45:36.052Z,4.11
2023-02-11T11:48:42.964Z,4.21
2023-02-11T11:51:58.622Z,4.41
2023-02-11T11:55:12.378Z,4.70
2023-02-11T11:58:21.216Z,5.01
2023-02-11T12:01:41.676Z,5.08
2023-02-11T12:04:51.640Z,5.37
2023-02-11T12:08:18.261Z,5.24
2023-02-11T12:11:19.930Z,5.18
2023-02-11T12:14:28.920Z,5.44
2023-02-11T12:17:44.175Z,5.84
2023-02-11T12:20:46.064Z,5.80
2023-02-11T12:24:12.222Z,5.68
2023-02-11T12:27:25.105Z,5.89
2023-02-11T12:30:50.874Z,5.57
2023-02-11T12:34:13.519Z,5.23
2023-02-11T12:37:30.660Z,5.61
2023-02-11T12:40:46.384Z,5.18
2023-02-11T12:43:48.634Z,5.50
2023-02-11T12:47:01.368Z,5.52
2023-02-11T12:50:21.778Z,5.86
2023-02-11T12:53:32.667Z,6.01
2023-02-11T12:56:45.526Z,5.48
2023-02-11T13:00:02.519Z,5.51
2023-02-11T13:03:17.022Z,5.74
2023-02-11T13:06:27.820Z,5.64
2023-02-11T13:09:46.863Z,5.80
2023-02-11T13:13:10.363Z,5.59
2023-02-11T13:16:37.083Z,5.16
2023-02-11T13:19:48.336Z,4.66
2023-02-11T13:23:12.266Z,4.56
2023-02-11T13:26:24.990Z,4.85
2023-02-11T13:29:56.753Z,5.13
2023-02-11T13:33:01.070Z,5.28
2023-02-11T13:36:04.736Z,5.30
2023-02-11T13:39:07.211Z,5.46
2023-02-11T13:42:16.555Z,5.44
2023-02-11T13:45:46.347Z,5.45
2023-02-11T13:48:52.702Z,5.57
2023-02-11T13:51:56.314Z,5.59
2023-02-11T13:55:15.259Z,5.59
2023-02-11T13:58:46.474Z,5.83
2023-02-11T14:02:14.433Z,5.83
2023-02-11T14:05:34.802Z,5.57
2023-02-11T14:08:55.362Z,5.85
2023-02-11T14:12:31.132Z,5.95
2023-02-11T14:15:41.469Z,5.60
2023-02-11T14:18:49.233Z,5.59
2023-02-11T14:21:51.107Z,7.82
2023-02-11T14:25:00.993Z,9.76
2023-02-11T14:28:24.408Z,7.97
2023-02-11T14:31:41.508Z,6.94
2023-02-11T14:35:27.788Z,6.46
2023-02-11T14:38:41.045Z,6.26
2023-02-11T14:41:46.344Z,6.18
2023-02-11T14:44:50.906Z,6.16
2023-02-11T14:48:23.289Z,7.13
2023-02-11T14:51:31.334Z,6.23
2023-02-11T14:54:35.404Z,6.74
2023-02-11T14:57:38.266Z,7.26
2023-02-11T15:01:21.461Z,6.30
2023-02-11T15:04:28.082Z,5.71
2023-02-11T15:07:30.455Z,5.43
2023-02-11T15:10:37.945Z,5.05
2023-02-11T15:13:47.549Z,4.72
2023-02-11T15:16:51.350Z,4.75
2023-02-11T15:20:01.100Z,4.52
2023-02-11T15:23:07.566Z,4.41
2023-02-11T15:26:23.320Z,4.25
2023-02-11T15:29:34.958Z,4.10
2023-02-11T15:32:41.614Z,4.07
2023-02-11T15:35:45.026Z,4.03
2023-02-11T15:39:07.519Z,3.93
2023-02-11T15:42:27.239Z,3.87
2023-02-11T15:45:37.565Z,3.80
2023-02-11T15:48:54.174Z,3.87
2023-02-11T15:51:58.446Z,3.52
2023-02-11T15:55:03.251Z,3.53
2023-02-11T15:58:05.892Z,3.41
2023-02-11T16:01:11.768Z,3.38
2023-02-11T16:04:22.244Z,3.15
2023-02-11T16:07:41.664Z,3.03
2023-02-11T16:10:58.818Z,2.99
2023-02-11T16:14:05.153Z,3.07
2023-02-11T16:17:24.296Z,3.04
2023-02-11T16:20:27.172Z,3.11
2023-02-11T16:23:37.229Z,3.13
2023-02-11T16:26:45.725Z,3.10
2023-02-11T16:29:49.883Z,2.96
2023-02-11T16:32:53.912Z,2.91
2023-02-11T16:35:56.887Z,2.89
2023-02-11T16:38:59.404Z,2.75
2023-02-11T16:42:06.421Z,2.65
2023-02-11T16:45:10.625Z,2.58
2023-02-11T16:48:19.786Z,2.54
2023-02-11T16:51:22.685Z,2.56
2023-02-11T16:54:25.457Z,2.70
2023-02-11T16:57:30.207Z,2.59
2023-02-11T17:00:34.069Z,2.62
2023-02-11T17:03:40.977Z,2.53
2023-02-11T17:06:43.580Z,2.52
2023-02-11T17:09:45.898Z,2.48
2023-02-11T17:12:50.056Z,2.53
2023-02-11T17:15:54.251Z,2.55
2023-02-11T17:18:58.847Z,2.49
2023-02-11T17:22:01.614Z,2.40
2023-02-11T17:25:04.355Z,2.42
2023-02-11T17:28:08.394Z,2.58
2023-02-11T17:31:11.381Z,2.41
2023-02-11T17:34:14.102Z,2.36
2023-02-11T17:37:16.651Z,2.31
2023-02-11T17:40:24.485Z,2.16
2023-02-11T17:43:27.871Z,2.25
2023-02-11T17:46:30.881Z,2.25
2023-02-11T17:49:33.280Z,2.21
2023-02-11T17:52:37.400Z,2.17
2023-02-11T17:55:40.307Z,2.24
2023-02-11T17:58:43.972Z,2.30
2023-02-11T18:01:46.968Z,2.50
2023-02-11T18:04:50.093Z,2.52
2023-02-11T18:07:52.751Z,2.47
2023-02-11T18:10:56.041Z,2.45
2023-02-11T18:14:07.884Z,2.49
2023-02-11T18:17:10.741Z,2.52
2023-02-11T18:20:13.787Z,2.46
2023-02-11T18:23:16.874Z,2.80
2023-02-11T18:26:22.863Z,2.76
2023-02-11T18:29:26.157Z,2.41
2023-02-11T18:32:29.084Z,2.70
2023-02-11T18:35:32.479Z,2.35
2023-02-11T18:38:35.689Z,2.28
2023-02-11T18:41:42.855Z,2.28
2023-02-11T18:44:45.113Z,2.39
2023-02-11T18:47:47.723Z,2.39
2023-02-11T18:50:50.596Z,2.41
2023-02-11T18:53:53.518Z,2.39
2023-02-11T18:56:56.447Z,2.34
2023-02-11T19:00:00.954Z,2.35
2023-02-11T19:03:03.477Z,2.28
2023-02-11T19:06:06.388Z,2.27
2023-02-11T19:09:11.836Z,2.18
2023-02-11T19:12:15.121Z,2.10
2023-02-11T19:15:18.698Z,2.10
2023-02-11T19:18:24.613Z,2.10
2023-02-11T19:21:27.322Z,2.11
2023-02-11T19:24:30.807Z,2.21
2023-02-11T19:27:37.330Z,2.29
2023-02-11T19:30:39.944Z,2.30
2023-02-11T19:33:43.948Z,2.29
2023-02-11T19:36:52.323Z,2.30
2023-02-11T19:39:55.236Z,2.34
2023-02-11T19:42:57.944Z,2.33
2023-02-11T19:46:05.961Z,2.50
2023-02-11T19:49:10.482Z,2.34
2023-02-11T19:52:13.007Z,2.35
2023-02-11T19:55:15.875Z,2.26
2023-02-11T19:58:21.185Z,2.24
2023-02-11T20:01:25.975Z,2.34
2023-02-11T20:04:32.609Z,2.30
2023-02-11T20:07:39.054Z,2.34
2023-02-11T20:10:44.191Z,2.36
2023-02-11T20:13:46.685Z,2.49
2023-02-11T20:16:52.292Z,2.35
2023-02-11T20:19:56.081Z,2.06
2023-02-11T20:23:02.203Z,1.99
2023-02-11T20:26:14.076Z,2.01
2023-02-11T20:29:18.295Z,2.21
2023-02-11T20:32:22.413Z,2.17
2023-02-11T20:35:25.396Z,2.22
2023-02-11T20:38:47.562Z,2.28
2023-02-11T20:41:51.522Z,2.20
2023-02-11T20:44:54.449Z,2.12
2023-02-11T20:47:57.795Z,2.27
2023-02-11T20:51:14.753Z,2.44
2023-02-11T20:54:22.452Z,2.52
2023-02-11T20:57:26.562Z,2.52
2023-02-11T21:00:28.997Z,2.50
2023-02-11T21:03:34.335Z,2.50
2023-02-11T21:06:46.028Z,2.47
2023-02-11T21:09:48.983Z,2.40
2023-02-11T21:12:52.019Z,2.37
2023-02-11T21:15:57.898Z,2.37
2023-02-11T21:19:01.677Z,2.44
2023-02-11T21:22:04.708Z,2.54
2023-02-11T21:25:09.068Z,2.73
2023-02-11T21:28:11.292Z,2.69
2023-02-11T21:31:32.877Z,2.76
2023-02-11T21:34:37.649Z,2.45
2023-02-11T21:37:41.108Z,2.73
2023-02-11T21:40:43.468Z,2.87
2023-02-11T21:43:46.164Z,2.88
2023-02-11T21:46:48.355Z,2.27
2023-02-11T21:49:50.594Z,1.78
2023-02-11T21:52:52.491Z,1.71
2023-02-11T21:56:04.434Z,1.74
2023-02-11T21:59:07.148Z,1.68
2023-02-11T22:02:11.318Z,1.70
2023-02-11T22:05:13.881Z,1.54
2023-02-11T22:08:17.530Z,1.59
2023-02-11T22:11:20.984Z,1.80
2023-02-11T22:14:22.800Z,1.88
2023-02-11T22:17:24.954Z,1.65
2023-02-11T22:20:26.744Z,1.41
2023-02-11T22:23:29.055Z,1.36
2023-02-11T22:26:30.838Z,1.59
2023-02-11T22:29:32.644Z,1.68
2023-02-11T22:32:34.322Z,1.66
2023-02-11T22:35:35.946Z,1.76
2023-02-11T22:38:37.621Z,1.74
2023-02-11T22:41:41.858Z,1.75
2023-02-11T22:44:43.527Z,1.74
2023-02-11T22:47:45.159Z,1.59
2023-02-11T22:50:46.774Z,1.43
2023-02-11T22:54:15.962Z,0.73
2023-02-11T22:57:17.612Z,0.34
2023-02-11T23:00:20.852Z,0.91
2023-02-11T23:03:22.616Z,1.04
2023-02-11T23:06:24.424Z,0.09
2023-02-11T23:09:26.105Z,-0.20
2023-02-11T23:12:27.780Z,-0.29
2023-02-11T23:15:29.555Z,-0.22
2023-02-11T23:18:31.595Z,0.25
2023-02-11T23:21:35.396Z,0.52
2023-02-11T23:24:37.093Z,0.70
2023-02-11T23:27:38.788Z,0.41
2023-02-11T23:30:41.532Z,0.68
2023-02-11T23:33:43.306Z,0.85
2023-02-11T23:36:45.057Z,1.06
2023-02-11T23:39:46.769Z,0.64
2023-02-11T23:42:49.157Z,0.84
2023-02-11T23:45:52.341Z,1.07
2023-02-11T23:48:54.363Z,1.23
2023-02-11T23:51:56.402Z,1.38
2023-02-11T23:54:58.133Z,1.40
2023-02-11T23:57:59.849Z,0.96
